sensor_id;sensor_type;location;lat;lon;timestamp;P1;durP1;ratioP1;P2;durP2;ratioP2
46643;SDS011;32371;51.032;5.816;2022-09-30T00:00:05;1.90;;;1.42;;
46643;SDS011;32371;51.032;5.816;2022-09-30T00:02:31;2.60;;;2.00;;
46643;SDS011;32371;51.032;5.816;2022-09-30T00:04:56;4.90;;;1.98;;
46643;SDS011;32371;51.032;5.816;2022-09-30T00:07:21;4.68;;;2.17;;
46643;SDS011;32371;51.032;5.816;2022-09-30T00:09:48;2.50;;;1.95;;
46643;SDS011;32371;51.032;5.816;2022-09-30T00:12:13;4.90;;;2.47;;
46643;SDS011;32371;51.032;5.816;2022-09-30T00:14:39;5.10;;;2.10;;
46643;SDS011;32371;51.032;5.816;2022-09-30T00:17:04;4.03;;;2.00;;
46643;SDS011;32371;51.032;5.816;2022-09-30T00:19:29;3.35;;;1.77;;
46643;SDS011;32371;51.032;5.816;2022-09-30T00:21:55;5.78;;;2.38;;
46643;SDS011;32371;51.032;5.816;2022-09-30T00:24:20;5.05;;;2.08;;
46643;SDS011;32371;51.032;5.816;2022-09-30T00:26:46;6.78;;;2.20;;
46643;SDS011;32371;51.032;5.816;2022-09-30T00:29:11;5.00;;;2.35;;
46643;SDS011;32371;51.032;5.816;2022-09-30T00:31:37;3.78;;;2.35;;
46643;SDS011;32371;51.032;5.816;2022-09-30T00:34:02;3.88;;;2.25;;
46643;SDS011;32371;51.032;5.816;2022-09-30T00:36:44;3.72;;;1.88;;
46643;SDS011;32371;51.032;5.816;2022-09-30T00:39:15;3.95;;;2.35;;
46643;SDS011;32371;51.032;5.816;2022-09-30T00:41:42;3.67;;;2.33;;
46643;SDS011;32371;51.032;5.816;2022-09-30T00:47:22;4.68;;;2.50;;
46643;SDS011;32371;51.032;5.816;2022-09-30T00:49:49;8.07;;;2.50;;
46643;SDS011;32371;51.032;5.816;2022-09-30T00:52:15;3.33;;;1.75;;
46643;SDS011;32371;51.032;5.816;2022-09-30T00:54:41;4.45;;;2.17;;
46643;SDS011;32371;51.032;5.816;2022-09-30T00:57:06;2.35;;;1.58;;
46643;SDS011;32371;51.032;5.816;2022-09-30T00:59:42;3.10;;;1.75;;
46643;SDS011;32371;51.032;5.816;2022-09-30T01:02:11;6.47;;;2.28;;
46643;SDS011;32371;51.032;5.816;2022-09-30T01:04:38;4.78;;;2.13;;
46643;SDS011;32371;51.032;5.816;2022-09-30T01:07:04;5.10;;;2.28;;
46643;SDS011;32371;51.032;5.816;2022-09-30T01:09:32;3.85;;;2.53;;
46643;SDS011;32371;51.032;5.816;2022-09-30T01:11:59;4.00;;;2.42;;
46643;SDS011;32371;51.032;5.816;2022-09-30T01:14:25;7.18;;;2.50;;
46643;SDS011;32371;51.032;5.816;2022-09-30T01:22:38;3.05;;;1.85;;
46643;SDS011;32371;51.032;5.816;2022-09-30T01:36:15;2.83;;;2.03;;
46643;SDS011;32371;51.032;5.816;2022-09-30T01:38:47;2.35;;;2.15;;
46643;SDS011;32371;51.032;5.816;2022-09-30T01:41:26;3.70;;;2.10;;
46643;SDS011;32371;51.032;5.816;2022-09-30T01:50:40;2.08;;;1.88;;
46643;SDS011;32371;51.032;5.816;2022-09-30T01:53:09;4.43;;;2.28;;
46643;SDS011;32371;51.032;5.816;2022-09-30T01:55:43;3.50;;;2.03;;
46643;SDS011;32371;51.032;5.816;2022-09-30T01:58:23;4.53;;;2.55;;
46643;SDS011;32371;51.032;5.816;2022-09-30T02:00:53;4.03;;;2.45;;
46643;SDS011;32371;51.032;5.816;2022-09-30T02:03:32;3.55;;;2.00;;
46643;SDS011;32371;51.032;5.816;2022-09-30T02:06:06;5.90;;;2.28;;
46643;SDS011;32371;51.032;5.816;2022-09-30T02:08:47;3.90;;;2.17;;
46643;SDS011;32371;51.032;5.816;2022-09-30T02:11:14;3.10;;;2.03;;
46643;SDS011;32371;51.032;5.816;2022-09-30T02:13:47;6.97;;;2.30;;
46643;SDS011;32371;51.032;5.816;2022-09-30T02:16:19;2.58;;;1.77;;
46643;SDS011;32371;51.032;5.816;2022-09-30T02:19:00;4.18;;;2.58;;
46643;SDS011;32371;51.032;5.816;2022-09-30T02:21:32;3.08;;;2.10;;
46643;SDS011;32371;51.032;5.816;2022-09-30T02:24:02;3.28;;;2.15;;
46643;SDS011;32371;51.032;5.816;2022-09-30T02:26:31;4.57;;;2.38;;
46643;SDS011;32371;51.032;5.816;2022-09-30T02:29:44;2.88;;;2.53;;
46643;SDS011;32371;51.032;5.816;2022-09-30T02:31:55;3.23;;;2.27;;
46643;SDS011;32371;51.032;5.816;2022-09-30T02:34:30;2.88;;;2.38;;
46643;SDS011;32371;51.032;5.816;2022-09-30T02:37:04;3.65;;;2.25;;
46643;SDS011;32371;51.032;5.816;2022-09-30T02:39:59;10.15;;;2.47;;
46643;SDS011;32371;51.032;5.816;2022-09-30T02:42:29;4.97;;;2.88;;
46643;SDS011;32371;51.032;5.816;2022-09-30T02:45:04;6.22;;;3.45;;
46643;SDS011;32371;51.032;5.816;2022-09-30T02:50:32;5.55;;;3.33;;
46643;SDS011;32371;51.032;5.816;2022-09-30T02:53:21;4.88;;;3.50;;
46643;SDS011;32371;51.032;5.816;2022-09-30T02:56:52;6.18;;;3.13;;
46643;SDS011;32371;51.032;5.816;2022-09-30T02:58:59;5.47;;;2.88;;
46643;SDS011;32371;51.032;5.816;2022-09-30T03:01:24;6.10;;;2.83;;
46643;SDS011;32371;51.032;5.816;2022-09-30T03:03:57;6.30;;;3.28;;
46643;SDS011;32371;51.032;5.816;2022-09-30T03:06:24;8.48;;;3.33;;
46643;SDS011;32371;51.032;5.816;2022-09-30T03:08:50;3.40;;;3.03;;
46643;SDS011;32371;51.032;5.816;2022-09-30T03:11:17;6.32;;;3.83;;
46643;SDS011;32371;51.032;5.816;2022-09-30T03:13:54;7.57;;;3.95;;
46643;SDS011;32371;51.032;5.816;2022-09-30T03:16:43;6.65;;;3.33;;
46643;SDS011;32371;51.032;5.816;2022-09-30T03:30:38;10.52;;;4.32;;
46643;SDS011;32371;51.032;5.816;2022-09-30T03:33:20;8.60;;;4.60;;
46643;SDS011;32371;51.032;5.816;2022-09-30T03:36:05;9.45;;;4.50;;
46643;SDS011;32371;51.032;5.816;2022-09-30T03:38:51;11.73;;;5.07;;
46643;SDS011;32371;51.032;5.816;2022-09-30T03:46:37;7.47;;;4.90;;
46643;SDS011;32371;51.032;5.816;2022-09-30T03:49:06;14.23;;;4.75;;
46643;SDS011;32371;51.032;5.816;2022-09-30T03:51:34;11.95;;;5.05;;
46643;SDS011;32371;51.032;5.816;2022-09-30T03:54:03;9.15;;;4.43;;
46643;SDS011;32371;51.032;5.816;2022-09-30T03:56:31;11.10;;;4.65;;
46643;SDS011;32371;51.032;5.816;2022-09-30T03:58:57;13.90;;;4.32;;
46643;SDS011;32371;51.032;5.816;2022-09-30T04:01:22;7.30;;;3.95;;
46643;SDS011;32371;51.032;5.816;2022-09-30T04:03:49;8.13;;;3.80;;
46643;SDS011;32371;51.032;5.816;2022-09-30T04:06:21;5.55;;;3.67;;
46643;SDS011;32371;51.032;5.816;2022-09-30T04:08:48;7.65;;;3.55;;
46643;SDS011;32371;51.032;5.816;2022-09-30T04:11:14;9.10;;;4.22;;
46643;SDS011;32371;51.032;5.816;2022-09-30T04:13:40;6.65;;;3.90;;
46643;SDS011;32371;51.032;5.816;2022-09-30T04:16:05;8.95;;;3.90;;
46643;SDS011;32371;51.032;5.816;2022-09-30T04:18:32;8.02;;;4.47;;
46643;SDS011;32371;51.032;5.816;2022-09-30T04:21:00;15.25;;;4.40;;
46643;SDS011;32371;51.032;5.816;2022-09-30T04:23:29;7.43;;;3.60;;
46643;SDS011;32371;51.032;5.816;2022-09-30T04:25:55;10.30;;;3.63;;
46643;SDS011;32371;51.032;5.816;2022-09-30T04:28:21;6.55;;;3.83;;
46643;SDS011;32371;51.032;5.816;2022-09-30T04:30:47;15.55;;;4.53;;
46643;SDS011;32371;51.032;5.816;2022-09-30T04:33:12;7.57;;;3.92;;
46643;SDS011;32371;51.032;5.816;2022-09-30T04:35:38;7.72;;;4.00;;
46643;SDS011;32371;51.032;5.816;2022-09-30T04:38:03;6.35;;;4.10;;
46643;SDS011;32371;51.032;5.816;2022-09-30T04:40:31;6.70;;;3.85;;
46643;SDS011;32371;51.032;5.816;2022-09-30T04:42:59;7.13;;;4.20;;
46643;SDS011;32371;51.032;5.816;2022-09-30T04:45:25;9.93;;;4.22;;
46643;SDS011;32371;51.032;5.816;2022-09-30T04:47:50;7.85;;;4.53;;
46643;SDS011;32371;51.032;5.816;2022-09-30T04:50:16;6.40;;;4.47;;
46643;SDS011;32371;51.032;5.816;2022-09-30T04:52:41;13.52;;;5.30;;
46643;SDS011;32371;51.032;5.816;2022-09-30T04:55:07;8.38;;;4.82;;
46643;SDS011;32371;51.032;5.816;2022-09-30T04:57:33;7.53;;;3.90;;
46643;SDS011;32371;51.032;5.816;2022-09-30T04:59:59;7.85;;;4.15;;
46643;SDS011;32371;51.032;5.816;2022-09-30T05:02:25;7.40;;;4.30;;
46643;SDS011;32371;51.032;5.816;2022-09-30T05:04:50;8.05;;;4.25;;
46643;SDS011;32371;51.032;5.816;2022-09-30T05:07:15;5.57;;;3.63;;
46643;SDS011;32371;51.032;5.816;2022-09-30T05:09:41;9.45;;;3.72;;
46643;SDS011;32371;51.032;5.816;2022-09-30T05:12:06;5.22;;;3.53;;
46643;SDS011;32371;51.032;5.816;2022-09-30T05:14:32;8.75;;;4.28;;
46643;SDS011;32371;51.032;5.816;2022-09-30T05:16:58;8.57;;;3.80;;
46643;SDS011;32371;51.032;5.816;2022-09-30T05:19:24;8.75;;;3.42;;
46643;SDS011;32371;51.032;5.816;2022-09-30T05:21:49;8.70;;;4.53;;
46643;SDS011;32371;51.032;5.816;2022-09-30T05:24:16;8.70;;;3.63;;
46643;SDS011;32371;51.032;5.816;2022-09-30T05:26:42;8.23;;;3.70;;
46643;SDS011;32371;51.032;5.816;2022-09-30T05:29:08;8.07;;;3.38;;
46643;SDS011;32371;51.032;5.816;2022-09-30T05:31:34;7.30;;;3.90;;
46643;SDS011;32371;51.032;5.816;2022-09-30T05:33:59;10.13;;;3.88;;
46643;SDS011;32371;51.032;5.816;2022-09-30T05:36:25;7.75;;;4.05;;
46643;SDS011;32371;51.032;5.816;2022-09-30T05:38:50;7.65;;;3.95;;
46643;SDS011;32371;51.032;5.816;2022-09-30T05:41:16;9.82;;;3.75;;
46643;SDS011;32371;51.032;5.816;2022-09-30T05:43:44;7.18;;;4.00;;
46643;SDS011;32371;51.032;5.816;2022-09-30T05:46:10;7.75;;;4.10;;
46643;SDS011;32371;51.032;5.816;2022-09-30T05:48:36;7.63;;;4.15;;
46643;SDS011;32371;51.032;5.816;2022-09-30T05:51:01;7.57;;;3.67;;
46643;SDS011;32371;51.032;5.816;2022-09-30T05:53:27;5.18;;;3.30;;
46643;SDS011;32371;51.032;5.816;2022-09-30T05:55:53;7.75;;;4.30;;
46643;SDS011;32371;51.032;5.816;2022-09-30T05:58:19;8.38;;;4.50;;
46643;SDS011;32371;51.032;5.816;2022-09-30T06:00:45;9.82;;;4.93;;
46643;SDS011;32371;51.032;5.816;2022-09-30T06:03:12;6.95;;;3.67;;
46643;SDS011;32371;51.032;5.816;2022-09-30T06:05:38;8.50;;;4.35;;
46643;SDS011;32371;51.032;5.816;2022-09-30T06:08:04;5.07;;;3.40;;
46643;SDS011;32371;51.032;5.816;2022-09-30T06:10:31;9.38;;;3.90;;
46643;SDS011;32371;51.032;5.816;2022-09-30T06:12:56;9.10;;;3.85;;
46643;SDS011;32371;51.032;5.816;2022-09-30T06:15:23;8.90;;;4.03;;
46643;SDS011;32371;51.032;5.816;2022-09-30T06:17:52;7.90;;;3.88;;
46643;SDS011;32371;51.032;5.816;2022-09-30T06:20:18;11.38;;;4.60;;
46643;SDS011;32371;51.032;5.816;2022-09-30T06:22:43;13.15;;;4.78;;
46643;SDS011;32371;51.032;5.816;2022-09-30T06:25:08;8.27;;;4.22;;
46643;SDS011;32371;51.032;5.816;2022-09-30T06:27:34;13.65;;;4.55;;
46643;SDS011;32371;51.032;5.816;2022-09-30T06:30:02;10.13;;;4.65;;
46643;SDS011;32371;51.032;5.816;2022-09-30T06:32:28;17.33;;;5.47;;
46643;SDS011;32371;51.032;5.816;2022-09-30T06:34:54;7.65;;;4.32;;
46643;SDS011;32371;51.032;5.816;2022-09-30T06:37:23;12.55;;;4.60;;
46643;SDS011;32371;51.032;5.816;2022-09-30T06:39:49;13.27;;;4.43;;
46643;SDS011;32371;51.032;5.816;2022-09-30T06:42:15;10.23;;;4.80;;
46643;SDS011;32371;51.032;5.816;2022-09-30T06:44:41;9.63;;;4.72;;
46643;SDS011;32371;51.032;5.816;2022-09-30T06:47:06;7.85;;;4.43;;
46643;SDS011;32371;51.032;5.816;2022-09-30T06:49:33;13.30;;;4.65;;
46643;SDS011;32371;51.032;5.816;2022-09-30T06:51:58;8.25;;;4.00;;
46643;SDS011;32371;51.032;5.816;2022-09-30T06:54:25;12.70;;;4.78;;
46643;SDS011;32371;51.032;5.816;2022-09-30T06:56:51;15.13;;;5.07;;
46643;SDS011;32371;51.032;5.816;2022-09-30T06:59:17;10.18;;;4.53;;
46643;SDS011;32371;51.032;5.816;2022-09-30T07:01:43;9.40;;;4.47;;
46643;SDS011;32371;51.032;5.816;2022-09-30T07:04:12;10.02;;;4.07;;
46643;SDS011;32371;51.032;5.816;2022-09-30T07:06:37;8.82;;;5.10;;
46643;SDS011;32371;51.032;5.816;2022-09-30T07:09:04;11.35;;;4.20;;
46643;SDS011;32371;51.032;5.816;2022-09-30T07:11:30;17.65;;;4.97;;
46643;SDS011;32371;51.032;5.816;2022-09-30T07:13:55;9.65;;;4.68;;
46643;SDS011;32371;51.032;5.816;2022-09-30T07:16:22;8.80;;;4.78;;
46643;SDS011;32371;51.032;5.816;2022-09-30T07:18:49;8.10;;;4.47;;
46643;SDS011;32371;51.032;5.816;2022-09-30T07:21:15;10.43;;;4.97;;
46643;SDS011;32371;51.032;5.816;2022-09-30T07:23:41;8.13;;;4.60;;
46643;SDS011;32371;51.032;5.816;2022-09-30T07:26:11;6.28;;;4.53;;
46643;SDS011;32371;51.032;5.816;2022-09-30T07:28:40;9.43;;;4.70;;
46643;SDS011;32371;51.032;5.816;2022-09-30T07:31:06;12.98;;;4.40;;
46643;SDS011;32371;51.032;5.816;2022-09-30T07:33:33;9.60;;;4.65;;
46643;SDS011;32371;51.032;5.816;2022-09-30T07:35:59;15.15;;;5.35;;
46643;SDS011;32371;51.032;5.816;2022-09-30T07:38:26;13.48;;;5.55;;
46643;SDS011;32371;51.032;5.816;2022-09-30T07:40:54;10.00;;;4.82;;
46643;SDS011;32371;51.032;5.816;2022-09-30T07:43:22;12.07;;;5.85;;
46643;SDS011;32371;51.032;5.816;2022-09-30T07:45:49;16.40;;;6.75;;
46643;SDS011;32371;51.032;5.816;2022-09-30T07:48:15;12.25;;;5.60;;
46643;SDS011;32371;51.032;5.816;2022-09-30T07:50:59;13.35;;;7.63;;
46643;SDS011;32371;51.032;5.816;2022-09-30T07:53:25;14.40;;;6.13;;
46643;SDS011;32371;51.032;5.816;2022-09-30T07:55:50;11.40;;;5.40;;
46643;SDS011;32371;51.032;5.816;2022-09-30T07:58:16;11.75;;;6.35;;
46643;SDS011;32371;51.032;5.816;2022-09-30T08:00:42;11.15;;;6.40;;
46643;SDS011;32371;51.032;5.816;2022-09-30T08:03:07;12.73;;;6.90;;
46643;SDS011;32371;51.032;5.816;2022-09-30T08:05:40;9.57;;;5.88;;
46643;SDS011;32371;51.032;5.816;2022-09-30T08:08:06;16.35;;;6.40;;
46643;SDS011;32371;51.032;5.816;2022-09-30T08:10:34;16.45;;;6.53;;
46643;SDS011;32371;51.032;5.816;2022-09-30T08:13:00;17.02;;;6.57;;
46643;SDS011;32371;51.032;5.816;2022-09-30T08:15:26;13.60;;;7.00;;
46643;SDS011;32371;51.032;5.816;2022-09-30T08:17:51;12.48;;;5.80;;
46643;SDS011;32371;51.032;5.816;2022-09-30T08:20:17;15.93;;;5.82;;
46643;SDS011;32371;51.032;5.816;2022-09-30T08:22:42;13.60;;;5.68;;
46643;SDS011;32371;51.032;5.816;2022-09-30T08:25:07;12.30;;;6.18;;
46643;SDS011;32371;51.032;5.816;2022-09-30T08:27:33;12.43;;;5.80;;
46643;SDS011;32371;51.032;5.816;2022-09-30T08:29:58;11.27;;;6.00;;
46643;SDS011;32371;51.032;5.816;2022-09-30T08:32:23;9.88;;;5.45;;
46643;SDS011;32371;51.032;5.816;2022-09-30T08:34:49;8.60;;;5.50;;
46643;SDS011;32371;51.032;5.816;2022-09-30T08:37:14;12.73;;;5.88;;
46643;SDS011;32371;51.032;5.816;2022-09-30T08:39:39;13.23;;;6.28;;
46643;SDS011;32371;51.032;5.816;2022-09-30T08:42:14;10.63;;;5.75;;
46643;SDS011;32371;51.032;5.816;2022-09-30T08:44:47;13.23;;;5.97;;
46643;SDS011;32371;51.032;5.816;2022-09-30T08:53:02;16.55;;;5.72;;
46643;SDS011;32371;51.032;5.816;2022-09-30T08:55:37;9.07;;;5.80;;
46643;SDS011;32371;51.032;5.816;2022-09-30T08:58:04;10.95;;;5.38;;
46643;SDS011;32371;51.032;5.816;2022-09-30T09:00:30;11.90;;;5.05;;
46643;SDS011;32371;51.032;5.816;2022-09-30T09:02:57;10.40;;;6.13;;
46643;SDS011;32371;51.032;5.816;2022-09-30T09:08:06;12.00;;;5.45;;
46643;SDS011;32371;51.032;5.816;2022-09-30T09:10:41;10.27;;;5.63;;
46643;SDS011;32371;51.032;5.816;2022-09-30T09:13:15;7.50;;;5.30;;
46643;SDS011;32371;51.032;5.816;2022-09-30T09:23:52;8.13;;;4.93;;
46643;SDS011;32371;51.032;5.816;2022-09-30T09:26:20;8.85;;;5.10;;
46643;SDS011;32371;51.032;5.816;2022-09-30T09:31:48;11.65;;;5.13;;
46643;SDS011;32371;51.032;5.816;2022-09-30T09:34:13;11.30;;;5.45;;
46643;SDS011;32371;51.032;5.816;2022-09-30T09:44:41;7.85;;;4.88;;
46643;SDS011;32371;51.032;5.816;2022-09-30T09:47:13;9.23;;;4.78;;
46643;SDS011;32371;51.032;5.816;2022-09-30T09:49:41;7.65;;;5.15;;
46643;SDS011;32371;51.032;5.816;2022-09-30T09:54:42;10.85;;;4.53;;
46643;SDS011;32371;51.032;5.816;2022-09-30T09:57:14;8.10;;;4.95;;
46643;SDS011;32371;51.032;5.816;2022-09-30T10:02:56;9.75;;;5.28;;
46643;SDS011;32371;51.032;5.816;2022-09-30T10:05:22;9.35;;;5.13;;
46643;SDS011;32371;51.032;5.816;2022-09-30T10:07:50;9.02;;;5.15;;
46643;SDS011;32371;51.032;5.816;2022-09-30T10:10:37;11.27;;;5.63;;
46643;SDS011;32371;51.032;5.816;2022-09-30T10:13:27;11.55;;;5.15;;
46643;SDS011;32371;51.032;5.816;2022-09-30T10:15:54;10.20;;;5.85;;
46643;SDS011;32371;51.032;5.816;2022-09-30T10:18:28;12.73;;;5.30;;
46643;SDS011;32371;51.032;5.816;2022-09-30T10:20:57;10.25;;;5.70;;
46643;SDS011;32371;51.032;5.816;2022-09-30T10:23:27;9.63;;;5.38;;
46643;SDS011;32371;51.032;5.816;2022-09-30T10:26:04;8.93;;;5.78;;
46643;SDS011;32371;51.032;5.816;2022-09-30T10:28:44;12.35;;;6.38;;
46643;SDS011;32371;51.032;5.816;2022-09-30T10:33:47;11.27;;;6.13;;
46643;SDS011;32371;51.032;5.816;2022-09-30T10:36:21;10.13;;;5.15;;
46643;SDS011;32371;51.032;5.816;2022-09-30T10:38:58;10.57;;;5.57;;
46643;SDS011;32371;51.032;5.816;2022-09-30T10:41:27;12.18;;;6.05;;
46643;SDS011;32371;51.032;5.816;2022-09-30T10:43:55;11.48;;;5.80;;
46643;SDS011;32371;51.032;5.816;2022-09-30T10:46:24;9.45;;;5.47;;
46643;SDS011;32371;51.032;5.816;2022-09-30T10:48:52;9.50;;;5.85;;
46643;SDS011;32371;51.032;5.816;2022-09-30T10:51:29;9.85;;;5.65;;
46643;SDS011;32371;51.032;5.816;2022-09-30T10:53:58;8.35;;;5.15;;
46643;SDS011;32371;51.032;5.816;2022-09-30T10:56:40;8.07;;;5.55;;
46643;SDS011;32371;51.032;5.816;2022-09-30T10:59:15;7.65;;;4.20;;
46643;SDS011;32371;51.032;5.816;2022-09-30T11:02:25;9.73;;;4.70;;
46643;SDS011;32371;51.032;5.816;2022-09-30T11:04:56;6.40;;;4.45;;
46643;SDS011;32371;51.032;5.816;2022-09-30T11:09:59;9.07;;;4.65;;
46643;SDS011;32371;51.032;5.816;2022-09-30T11:12:40;7.30;;;4.00;;
46643;SDS011;32371;51.032;5.816;2022-09-30T11:15:14;6.00;;;4.00;;
46643;SDS011;32371;51.032;5.816;2022-09-30T11:17:47;9.40;;;4.43;;
46643;SDS011;32371;51.032;5.816;2022-09-30T11:22:51;7.03;;;3.58;;
46643;SDS011;32371;51.032;5.816;2022-09-30T11:25:26;3.85;;;2.97;;
46643;SDS011;32371;51.032;5.816;2022-09-30T11:33:34;8.50;;;3.50;;
46643;SDS011;32371;51.032;5.816;2022-09-30T11:41:45;5.15;;;2.70;;
46643;SDS011;32371;51.032;5.816;2022-09-30T12:00:24;4.65;;;1.90;;
46643;SDS011;32371;51.032;5.816;2022-09-30T12:02:50;3.50;;;2.03;;
46643;SDS011;32371;51.032;5.816;2022-09-30T12:05:35;4.78;;;1.80;;
46643;SDS011;32371;51.032;5.816;2022-09-30T12:10:55;3.88;;;1.60;;
46643;SDS011;32371;51.032;5.816;2022-09-30T12:13:28;1.98;;;1.20;;
46643;SDS011;32371;51.032;5.816;2022-09-30T12:15:57;3.88;;;1.30;;
46643;SDS011;32371;51.032;5.816;2022-09-30T12:18:29;2.20;;;1.10;;
46643;SDS011;32371;51.032;5.816;2022-09-30T12:21:01;2.95;;;1.00;;
46643;SDS011;32371;51.032;5.816;2022-09-30T12:25:58;2.92;;;1.02;;
46643;SDS011;32371;51.032;5.816;2022-09-30T12:28:36;2.97;;;0.80;;
46643;SDS011;32371;51.032;5.816;2022-09-30T12:42:35;1.73;;;0.73;;
46643;SDS011;32371;51.032;5.816;2022-09-30T12:48:09;0.63;;;0.60;;
46643;SDS011;32371;51.032;5.816;2022-09-30T12:50:41;1.13;;;0.60;;
46643;SDS011;32371;51.032;5.816;2022-09-30T12:53:20;2.25;;;1.10;;
46643;SDS011;32371;51.032;5.816;2022-09-30T12:55:49;1.15;;;0.77;;
46643;SDS011;32371;51.032;5.816;2022-09-30T12:58:22;1.10;;;0.60;;
46643;SDS011;32371;51.032;5.816;2022-09-30T13:00:57;3.70;;;0.75;;
46643;SDS011;32371;51.032;5.816;2022-09-30T13:03:24;1.25;;;0.70;;
46643;SDS011;32371;51.032;5.816;2022-09-30T13:05:59;2.38;;;0.80;;
46643;SDS011;32371;51.032;5.816;2022-09-30T13:11:40;6.70;;;0.70;;
46643;SDS011;32371;51.032;5.816;2022-09-30T13:19:35;0.65;;;0.43;;
46643;SDS011;32371;51.032;5.816;2022-09-30T13:27:27;1.60;;;0.43;;
46643;SDS011;32371;51.032;5.816;2022-09-30T13:30:00;3.03;;;0.50;;
46643;SDS011;32371;51.032;5.816;2022-09-30T13:32:30;1.25;;;0.32;;
46643;SDS011;32371;51.032;5.816;2022-09-30T13:35:02;1.25;;;0.50;;
46643;SDS011;32371;51.032;5.816;2022-09-30T13:40:42;0.57;;;0.57;;
46643;SDS011;32371;51.032;5.816;2022-09-30T13:43:20;0.50;;;0.30;;
46643;SDS011;32371;51.032;5.816;2022-09-30T13:45:48;0.80;;;0.40;;
46643;SDS011;32371;51.032;5.816;2022-09-30T13:48:27;0.30;;;0.30;;
46643;SDS011;32371;51.032;5.816;2022-09-30T13:50:54;0.45;;;0.20;;
46643;SDS011;32371;51.032;5.816;2022-09-30T13:55:54;0.75;;;0.30;;
46643;SDS011;32371;51.032;5.816;2022-09-30T14:18:36;1.45;;;0.13;;
46643;SDS011;32371;51.032;5.816;2022-09-30T14:21:17;0.22;;;0.13;;
46643;SDS011;32371;51.032;5.816;2022-09-30T14:23:56;0.68;;;0.10;;
46643;SDS011;32371;51.032;5.816;2022-09-30T14:29:29;1.08;;;0.30;;
46643;SDS011;32371;51.032;5.816;2022-09-30T14:32:03;0.30;;;0.30;;
46643;SDS011;32371;51.032;5.816;2022-09-30T14:37:11;0.20;;;0.20;;
46643;SDS011;32371;51.032;5.816;2022-09-30T14:39:43;0.65;;;0.20;;
46643;SDS011;32371;51.032;5.816;2022-09-30T14:42:11;0.88;;;0.40;;
46643;SDS011;32371;51.032;5.816;2022-09-30T14:44:38;2.30;;;0.50;;
46643;SDS011;32371;51.032;5.816;2022-09-30T14:47:04;0.30;;;0.30;;
46643;SDS011;32371;51.032;5.816;2022-09-30T14:49:31;0.55;;;0.30;;
46643;SDS011;32371;51.032;5.816;2022-09-30T14:51:58;3.40;;;0.50;;
46643;SDS011;32371;51.032;5.816;2022-09-30T14:54:28;1.95;;;0.40;;
46643;SDS011;32371;51.032;5.816;2022-09-30T14:56:55;0.50;;;0.30;;
46643;SDS011;32371;51.032;5.816;2022-09-30T14:59:22;0.63;;;0.50;;
46643;SDS011;32371;51.032;5.816;2022-09-30T15:01:53;1.42;;;0.50;;
46643;SDS011;32371;51.032;5.816;2022-09-30T15:04:25;1.40;;;0.57;;
46643;SDS011;32371;51.032;5.816;2022-09-30T15:06:54;0.55;;;0.28;;
46643;SDS011;32371;51.032;5.816;2022-09-30T15:12:05;0.68;;;0.38;;
46643;SDS011;32371;51.032;5.816;2022-09-30T15:14:43;1.40;;;0.43;;
46643;SDS011;32371;51.032;5.816;2022-09-30T15:17:16;0.75;;;0.60;;
46643;SDS011;32371;51.032;5.816;2022-09-30T15:19:45;2.00;;;0.40;;
46643;SDS011;32371;51.032;5.816;2022-09-30T15:22:11;0.60;;;0.60;;
46643;SDS011;32371;51.032;5.816;2022-09-30T15:24:37;0.70;;;0.70;;
46643;SDS011;32371;51.032;5.816;2022-09-30T15:27:04;1.05;;;0.55;;
46643;SDS011;32371;51.032;5.816;2022-09-30T15:29:31;1.02;;;0.30;;
46643;SDS011;32371;51.032;5.816;2022-09-30T15:32:13;0.63;;;0.63;;
46643;SDS011;32371;51.032;5.816;2022-09-30T15:34:40;1.90;;;0.43;;
46643;SDS011;32371;51.032;5.816;2022-09-30T15:37:12;0.10;;;0.10;;
46643;SDS011;32371;51.032;5.816;2022-09-30T15:39:47;0.75;;;0.50;;
46643;SDS011;32371;51.032;5.816;2022-09-30T15:45:00;0.93;;;0.20;;
46643;SDS011;32371;51.032;5.816;2022-09-30T15:47:30;1.35;;;0.30;;
46643;SDS011;32371;51.032;5.816;2022-09-30T15:49:55;2.15;;;0.70;;
46643;SDS011;32371;51.032;5.816;2022-09-30T15:52:37;1.20;;;0.40;;
46643;SDS011;32371;51.032;5.816;2022-09-30T16:06:24;0.70;;;0.38;;
46643;SDS011;32371;51.032;5.816;2022-09-30T16:08:55;1.38;;;0.22;;
46643;SDS011;32371;51.032;5.816;2022-09-30T16:11:47;3.80;;;0.68;;
46643;SDS011;32371;51.032;5.816;2022-09-30T16:14:21;0.50;;;0.25;;
46643;SDS011;32371;51.032;5.816;2022-09-30T16:16:51;0.52;;;0.52;;
46643;SDS011;32371;51.032;5.816;2022-09-30T16:19:17;2.28;;;0.30;;
46643;SDS011;32371;51.032;5.816;2022-09-30T16:21:44;0.52;;;0.30;;
46643;SDS011;32371;51.032;5.816;2022-09-30T16:29:15;0.47;;;0.40;;
46643;SDS011;32371;51.032;5.816;2022-09-30T16:31:42;0.82;;;0.35;;
46643;SDS011;32371;51.032;5.816;2022-09-30T16:34:18;1.50;;;0.50;;
46643;SDS011;32371;51.032;5.816;2022-09-30T16:36:45;0.77;;;0.43;;
46643;SDS011;32371;51.032;5.816;2022-09-30T16:39:11;0.70;;;0.40;;
46643;SDS011;32371;51.032;5.816;2022-09-30T16:41:39;0.40;;;0.35;;
46643;SDS011;32371;51.032;5.816;2022-09-30T16:44:05;1.90;;;0.35;;
46643;SDS011;32371;51.032;5.816;2022-09-30T16:46:30;1.42;;;0.60;;
46643;SDS011;32371;51.032;5.816;2022-09-30T16:48:57;2.13;;;0.20;;
46643;SDS011;32371;51.032;5.816;2022-09-30T16:51:23;1.98;;;0.52;;
46643;SDS011;32371;51.032;5.816;2022-09-30T16:53:48;0.60;;;0.50;;
46643;SDS011;32371;51.032;5.816;2022-09-30T16:56:14;0.93;;;0.45;;
46643;SDS011;32371;51.032;5.816;2022-09-30T16:58:40;0.20;;;0.20;;
46643;SDS011;32371;51.032;5.816;2022-09-30T17:01:12;0.17;;;0.15;;
46643;SDS011;32371;51.032;5.816;2022-09-30T17:03:40;0.47;;;0.30;;
46643;SDS011;32371;51.032;5.816;2022-09-30T17:06:05;0.73;;;0.40;;
46643;SDS011;32371;51.032;5.816;2022-09-30T17:08:31;1.25;;;0.30;;
46643;SDS011;32371;51.032;5.816;2022-09-30T17:10:56;0.55;;;0.22;;
46643;SDS011;32371;51.032;5.816;2022-09-30T17:13:22;0.38;;;0.32;;
46643;SDS011;32371;51.032;5.816;2022-09-30T17:15:48;3.40;;;0.55;;
46643;SDS011;32371;51.032;5.816;2022-09-30T17:18:14;1.23;;;0.40;;
46643;SDS011;32371;51.032;5.816;2022-09-30T17:20:41;0.55;;;0.50;;
46643;SDS011;32371;51.032;5.816;2022-09-30T17:23:08;1.15;;;0.65;;
46643;SDS011;32371;51.032;5.816;2022-09-30T17:25:37;0.55;;;0.55;;
46643;SDS011;32371;51.032;5.816;2022-09-30T17:28:05;1.08;;;0.60;;
46643;SDS011;32371;51.032;5.816;2022-09-30T17:30:30;0.80;;;0.40;;
46643;SDS011;32371;51.032;5.816;2022-09-30T17:32:57;0.60;;;0.60;;
46643;SDS011;32371;51.032;5.816;2022-09-30T17:35:23;1.50;;;0.60;;
46643;SDS011;32371;51.032;5.816;2022-09-30T17:37:48;0.95;;;0.40;;
46643;SDS011;32371;51.032;5.816;2022-09-30T17:40:13;0.50;;;0.45;;
46643;SDS011;32371;51.032;5.816;2022-09-30T17:42:57;1.30;;;0.50;;
46643;SDS011;32371;51.032;5.816;2022-09-30T17:45:33;2.70;;;0.50;;
46643;SDS011;32371;51.032;5.816;2022-09-30T17:47:58;1.38;;;0.40;;
46643;SDS011;32371;51.032;5.816;2022-09-30T17:50:24;2.22;;;0.80;;
46643;SDS011;32371;51.032;5.816;2022-09-30T17:52:49;1.23;;;0.50;;
46643;SDS011;32371;51.032;5.816;2022-09-30T17:55:15;1.02;;;0.88;;
46643;SDS011;32371;51.032;5.816;2022-09-30T17:57:40;1.10;;;0.65;;
46643;SDS011;32371;51.032;5.816;2022-09-30T18:00:06;1.17;;;0.70;;
46643;SDS011;32371;51.032;5.816;2022-09-30T18:02:32;0.77;;;0.45;;
46643;SDS011;32371;51.032;5.816;2022-09-30T18:04:57;2.58;;;0.65;;
46643;SDS011;32371;51.032;5.816;2022-09-30T18:07:23;1.20;;;0.80;;
46643;SDS011;32371;51.032;5.816;2022-09-30T18:09:49;2.42;;;1.08;;
46643;SDS011;32371;51.032;5.816;2022-09-30T18:12:15;2.88;;;1.08;;
46643;SDS011;32371;51.032;5.816;2022-09-30T18:14:40;4.65;;;1.20;;
46643;SDS011;32371;51.032;5.816;2022-09-30T18:17:08;7.15;;;1.17;;
46643;SDS011;32371;51.032;5.816;2022-09-30T18:19:33;1.73;;;1.30;;